createdAt,value
2018-10-06T00:00:41.808Z,8.20
2018-10-06T00:01:41.833Z,8.10
2018-10-06T00:02:41.847Z,8.90
2018-10-06T00:03:41.868Z,8.00
2018-10-06T00:04:41.886Z,8.20
2018-10-06T00:05:41.901Z,8.00
2018-10-06T00:06:41.915Z,8.40
2018-10-06T00:07:41.928Z,7.90
2018-10-06T00:08:41.941Z,7.90
2018-10-06T00:09:41.966Z,7.60
2018-10-06T00:10:41.984Z,7.90
2018-10-06T00:11:41.995Z,8.50
2018-10-06T00:12:42.009Z,8.50
2018-10-06T00:13:42.023Z,8.00
2018-10-06T00:14:42.046Z,9.20
2018-10-06T00:15:42.061Z,8.40
2018-10-06T00:16:42.076Z,8.60
2018-10-06T00:17:42.089Z,9.10
2018-10-06T00:18:42.114Z,8.40
2018-10-06T00:19:42.127Z,8.90
2018-10-06T00:20:42.176Z,8.90
2018-10-06T00:21:42.155Z,8.80
2018-10-06T00:22:42.172Z,8.90
2018-10-06T00:23:42.195Z,9.50
2018-10-06T00:24:42.208Z,8.60
2018-10-06T00:25:42.223Z,9.30
2018-10-06T00:26:42.235Z,8.90
2018-10-06T00:27:42.260Z,9.30
2018-10-06T00:28:42.275Z,9.90
2018-10-06T00:29:42.290Z,8.90
2018-10-06T00:30:42.303Z,9.40
2018-10-06T00:31:42.314Z,9.10
2018-10-06T00:32:42.341Z,9.20
2018-10-06T00:33:42.355Z,8.90
2018-10-06T00:34:42.368Z,9.90
2018-10-06T00:35:42.383Z,9.40
2018-10-06T00:36:42.395Z,9.40
2018-10-06T00:37:42.421Z,9.80
2018-10-06T00:38:42.440Z,9.60
2018-10-06T00:39:42.461Z,9.90
2018-10-06T00:40:42.464Z,10.00
2018-10-06T00:41:42.476Z,9.60
2018-10-06T00:42:42.501Z,9.90
2018-10-06T00:43:42.519Z,9.60
2018-10-06T00:44:42.528Z,9.90
2018-10-06T00:45:42.554Z,9.10
2018-10-06T00:46:42.557Z,9.20
2018-10-06T00:47:42.595Z,9.20
2018-10-06T00:48:42.596Z,9.60
2018-10-06T00:49:42.608Z,9.20
2018-10-06T00:50:42.622Z,9.60
2018-10-06T00:51:42.650Z,8.70
2018-10-06T00:52:42.662Z,9.50
2018-10-06T00:53:42.676Z,10.00
2018-10-06T00:54:42.688Z,9.20
2018-10-06T00:55:42.705Z,9.70
2018-10-06T00:56:42.729Z,9.30
2018-10-06T00:57:42.742Z,8.90
2018-10-06T00:58:42.756Z,9.50
2018-10-06T00:59:42.781Z,9.20
2018-10-06T01:00:42.783Z,9.40
2018-10-06T01:01:42.808Z,8.80
2018-10-06T01:02:42.821Z,8.50
2018-10-06T01:03:42.836Z,8.90
2018-10-06T01:04:42.848Z,9.30
2018-10-06T01:05:42.867Z,9.50
2018-10-06T01:06:42.889Z,9.20
2018-10-06T01:07:42.902Z,8.60
2018-10-06T01:08:42.916Z,8.20
2018-10-06T01:09:42.929Z,9.30
2018-10-06T01:10:42.943Z,8.90
2018-10-06T01:11:42.970Z,9.30
2018-10-06T01:12:42.982Z,9.10
2018-10-06T01:13:42.999Z,9.20
2018-10-06T01:14:43.016Z,8.90
2018-10-06T01:15:43.023Z,8.50
2018-10-06T01:16:43.049Z,8.90
2018-10-06T01:17:43.062Z,9.10
2018-10-06T01:18:43.077Z,9.50
2018-10-06T01:19:43.089Z,9.10
2018-10-06T01:20:43.115Z,9.20
2018-10-06T01:21:43.130Z,8.90
2018-10-06T01:22:43.142Z,9.70
2018-10-06T01:23:43.157Z,8.90
2018-10-06T01:24:43.169Z,8.90
2018-10-06T01:25:43.196Z,9.50
2018-10-06T01:26:43.209Z,9.20
2018-10-06T01:27:43.222Z,9.00
2018-10-06T01:28:43.237Z,9.10
2018-10-06T01:29:43.250Z,9.50
2018-10-06T01:30:43.275Z,9.00
2018-10-06T01:31:43.290Z,9.30
2018-10-06T01:32:43.316Z,9.30
2018-10-06T01:33:43.316Z,9.30
2018-10-06T01:34:43.333Z,9.40
2018-10-06T01:35:43.356Z,9.50
2018-10-06T01:36:43.371Z,9.20
2018-10-06T01:37:43.383Z,8.50
2018-10-06T01:38:43.398Z,9.80
2018-10-06T01:39:43.409Z,8.80
2018-10-06T01:40:43.448Z,9.10
2018-10-06T01:41:43.450Z,9.30
2018-10-06T01:42:43.464Z,9.20
2018-10-06T01:43:43.477Z,8.50
2018-10-06T01:44:43.489Z,8.50
2018-10-06T01:45:43.516Z,9.60
2018-10-06T01:46:43.533Z,9.20
2018-10-06T01:47:43.544Z,8.90
2018-10-06T01:48:43.558Z,9.20
2018-10-06T01:49:43.628Z,9.30
2018-10-06T01:50:43.596Z,8.50
2018-10-06T01:51:43.611Z,9.30
2018-10-06T01:52:43.623Z,9.60
2018-10-06T01:53:43.637Z,9.70
2018-10-06T01:54:43.649Z,10.00
2018-10-06T01:55:43.676Z,9.70
2018-10-06T01:56:43.690Z,9.60
2018-10-06T01:57:43.706Z,9.90
2018-10-06T01:58:43.717Z,9.90
2018-10-06T01:59:43.730Z,10.10
2018-10-06T02:00:43.755Z,9.30
2018-10-06T02:01:43.770Z,9.30
2018-10-06T02:02:43.785Z,9.50
2018-10-06T02:03:43.797Z,9.40
2018-10-06T02:04:43.811Z,8.70
2018-10-06T02:05:43.836Z,9.30
2018-10-06T02:06:43.850Z,9.40
2018-10-06T02:07:43.863Z,9.20
2018-10-06T02:08:43.878Z,9.70
2018-10-06T02:09:43.890Z,9.30
2018-10-06T02:10:43.917Z,9.10
2018-10-06T02:11:43.931Z,9.00
2018-10-06T02:12:43.943Z,9.10
2018-10-06T02:13:43.957Z,9.90
2018-10-06T02:14:43.984Z,9.90
2018-10-06T02:15:43.996Z,10.00
2018-10-06T02:16:44.013Z,9.00
2018-10-06T02:17:44.024Z,9.40
2018-10-06T02:18:44.037Z,10.00
2018-10-06T02:19:44.050Z,10.90
2018-10-06T02:20:44.076Z,10.30
2018-10-06T02:21:44.090Z,9.90
2018-10-06T02:22:44.104Z,10.50
2018-10-06T02:23:44.119Z,10.80
2018-10-06T02:24:44.132Z,10.70
2018-10-06T02:25:44.146Z,11.40
2018-10-06T02:26:44.171Z,10.30
2018-10-06T02:27:44.183Z,11.10
2018-10-06T02:28:44.202Z,11.10
2018-10-06T02:29:44.210Z,10.80
2018-10-06T02:30:44.227Z,10.40
2018-10-06T02:31:44.252Z,10.80
2018-10-06T02:32:44.264Z,10.70
2018-10-06T02:33:44.278Z,10.40
2018-10-06T02:34:44.303Z,10.50
2018-10-06T02:35:44.305Z,11.00
2018-10-06T02:36:44.322Z,10.80
2018-10-06T02:37:44.345Z,10.90
2018-10-06T02:38:44.359Z,11.30
2018-10-06T02:39:44.373Z,11.00
2018-10-06T02:40:44.389Z,10.90
2018-10-06T02:41:44.399Z,11.00
2018-10-06T02:42:44.424Z,10.60
2018-10-06T02:43:44.439Z,10.60
2018-10-06T02:44:44.452Z,11.50
2018-10-06T02:45:44.466Z,10.40
2018-10-06T02:46:44.480Z,11.80
2018-10-06T02:47:44.494Z,11.20
2018-10-06T02:48:44.518Z,10.50
2018-10-06T02:49:44.532Z,10.70
2018-10-06T02:50:44.545Z,11.00
2018-10-06T02:51:44.558Z,11.30
2018-10-06T02:52:44.573Z,11.50
2018-10-06T02:53:44.599Z,11.10
2018-10-06T02:54:44.612Z,12.10
2018-10-06T02:55:44.626Z,12.10
2018-10-06T02:56:44.639Z,11.40
2018-10-06T02:57:44.715Z,10.90
2018-10-06T02:58:44.666Z,12.50
2018-10-06T02:59:44.692Z,12.30
2018-10-06T03:00:44.707Z,11.90
2018-10-06T03:01:44.719Z,12.40
2018-10-06T03:02:44.733Z,12.50
2018-10-06T03:03:44.746Z,11.80
2018-10-06T03:04:44.771Z,12.50
2018-10-06T03:05:44.791Z,12.20
2018-10-06T03:06:44.799Z,12.70
2018-10-06T03:07:44.813Z,13.00
2018-10-06T03:08:44.840Z,11.90
2018-10-06T03:09:44.843Z,12.10
2018-10-06T03:10:44.854Z,12.40
2018-10-06T03:11:44.880Z,12.00
2018-10-06T03:12:44.893Z,12.30
2018-10-06T03:13:44.907Z,12.60
2018-10-06T03:14:44.920Z,11.80
2018-10-06T03:15:44.935Z,11.80
2018-10-06T03:16:44.961Z,12.30
2018-10-06T03:17:44.973Z,13.10
2018-10-06T03:18:44.986Z,12.90
2018-10-06T03:19:45.001Z,12.10
2018-10-06T03:20:45.013Z,12.50
2018-10-06T03:21:45.029Z,11.90
2018-10-06T03:22:45.056Z,11.10
2018-10-06T03:23:45.068Z,11.70
2018-10-06T03:24:45.081Z,11.90
2018-10-06T03:25:45.094Z,11.60
2018-10-06T03:26:45.107Z,11.50
2018-10-06T03:27:45.121Z,11.60
2018-10-06T03:28:45.164Z,11.90
2018-10-06T03:29:45.161Z,11.90
2018-10-06T03:30:45.173Z,11.90
2018-10-06T03:31:45.188Z,11.50
2018-10-06T03:32:45.200Z,12.50
2018-10-06T03:33:45.227Z,12.20
2018-10-06T03:34:45.245Z,12.60
2018-10-06T03:35:45.254Z,12.40
2018-10-06T03:36:45.268Z,12.40
2018-10-06T03:37:45.280Z,12.40
2018-10-06T03:38:45.296Z,13.20
2018-10-06T03:39:45.321Z,12.10
2018-10-06T03:40:45.335Z,11.40
2018-10-06T03:41:45.347Z,11.10
2018-10-06T03:42:45.360Z,11.90
2018-10-06T03:43:45.375Z,12.20
2018-10-06T03:44:45.389Z,11.80
2018-10-06T03:45:45.414Z,12.20
2018-10-06T03:46:45.428Z,11.50
2018-10-06T03:47:45.442Z,11.30
2018-10-06T03:48:45.454Z,12.10
2018-10-06T03:49:45.468Z,11.90
2018-10-06T03:50:45.482Z,12.00
2018-10-06T03:51:45.508Z,12.10
2018-10-06T03:52:45.521Z,12.00
2018-10-06T03:53:45.541Z,12.40
2018-10-06T03:54:45.549Z,12.40
2018-10-06T03:55:45.562Z,11.30
2018-10-06T03:56:45.576Z,12.80
2018-10-06T03:57:45.601Z,12.40
2018-10-06T03:58:45.616Z,13.50
2018-10-06T03:59:45.629Z,13.50
2018-10-06T04:00:45.641Z,13.10
2018-10-06T04:01:45.656Z,13.00
2018-10-06T04:02:45.685Z,12.30
2018-10-06T04:03:45.695Z,12.10
2018-10-06T04:04:45.709Z,13.00
2018-10-06T04:05:45.725Z,12.60
2018-10-06T04:06:45.737Z,12.30
2018-10-06T04:07:45.753Z,13.00
2018-10-06T04:08:45.775Z,12.10
2018-10-06T04:09:45.789Z,12.60
2018-10-06T04:10:45.803Z,12.60
2018-10-06T04:11:45.816Z,12.40
2018-10-06T04:12:45.830Z,12.70
2018-10-06T04:13:45.842Z,13.30
2018-10-06T04:14:45.882Z,12.60
2018-10-06T04:15:45.883Z,12.70
2018-10-06T04:16:45.895Z,12.60
2018-10-06T04:17:45.910Z,13.00
2018-10-06T04:18:45.922Z,12.90
2018-10-06T04:19:45.937Z,12.20
2018-10-06T04:20:45.965Z,12.10
2018-10-06T04:21:45.975Z,11.90
2018-10-06T04:22:45.990Z,12.40
2018-10-06T04:23:46.005Z,11.90
2018-10-06T04:24:46.017Z,11.90
2018-10-06T04:25:46.029Z,12.40
2018-10-06T04:26:46.055Z,11.90
2018-10-06T04:27:46.075Z,12.50
2018-10-06T04:28:46.083Z,11.50
2018-10-06T04:29:46.102Z,12.40
2018-10-06T04:30:46.109Z,11.80
2018-10-06T04:31:46.128Z,11.70
2018-10-06T04:32:46.151Z,11.40
2018-10-06T04:33:46.165Z,11.20
2018-10-06T04:34:46.177Z,12.00
2018-10-06T04:35:46.203Z,11.60
2018-10-06T04:36:46.204Z,11.70
2018-10-06T04:37:46.220Z,11.40
2018-10-06T04:38:46.232Z,11.70
2018-10-06T04:39:46.258Z,11.40
2018-10-06T04:40:46.270Z,11.30
2018-10-06T04:41:46.287Z,10.20
2018-10-06T04:42:46.298Z,11.50
2018-10-06T04:43:46.312Z,10.70
2018-10-06T04:44:46.339Z,10.70
2018-10-06T04:45:46.351Z,10.50
2018-10-06T04:46:46.364Z,11.20
2018-10-06T04:47:46.377Z,10.70
2018-10-06T04:48:46.392Z,11.00
2018-10-06T04:49:46.405Z,11.00
2018-10-06T04:50:46.432Z,10.80
2018-10-06T04:51:46.445Z,10.10
2018-10-06T04:52:46.458Z,10.70
2018-10-06T04:53:46.472Z,10.50
2018-10-06T04:54:46.484Z,11.10
2018-10-06T04:55:46.499Z,10.50
2018-10-06T04:56:46.525Z,10.80
2018-10-06T04:57:46.538Z,11.80
2018-10-06T04:58:46.553Z,11.50
2018-10-06T04:59:46.564Z,10.60
2018-10-06T05:00:46.580Z,11.00
2018-10-06T05:01:46.592Z,11.50
2018-10-06T05:02:46.617Z,11.20
2018-10-06T05:03:46.633Z,10.40
2018-10-06T05:04:46.645Z,10.80
2018-10-06T05:05:46.659Z,11.20
2018-10-06T05:06:46.673Z,11.30
2018-10-06T05:07:46.697Z,11.10
2018-10-06T05:08:46.712Z,10.40
2018-10-06T05:09:46.740Z,11.50
2018-10-06T05:10:46.739Z,11.50
2018-10-06T05:11:46.751Z,11.20
2018-10-06T05:12:46.767Z,10.60
2018-10-06T05:13:46.792Z,10.80
2018-10-06T05:14:46.807Z,10.60
2018-10-06T05:15:46.820Z,10.90
2018-10-06T05:16:46.832Z,10.90
2018-10-06T05:17:46.846Z,11.10
2018-10-06T05:18:46.861Z,10.50
2018-10-06T05:19:46.885Z,10.90
2018-10-06T05:20:46.913Z,11.20
2018-10-06T05:21:46.913Z,11.20
2018-10-06T05:22:46.927Z,11.20
2018-10-06T05:23:46.941Z,10.70
2018-10-06T05:24:46.955Z,10.70
2018-10-06T05:25:46.979Z,11.20
2018-10-06T05:26:46.992Z,11.00
2018-10-06T05:27:47.008Z,11.10
2018-10-06T05:28:47.023Z,10.50
2018-10-06T05:29:47.036Z,11.10
2018-10-06T05:30:47.059Z,10.90
2018-10-06T05:31:47.074Z,11.20
2018-10-06T05:32:47.088Z,10.80
2018-10-06T05:33:47.138Z,11.30
2018-10-06T05:34:47.115Z,10.80
2018-10-06T05:35:47.127Z,11.50
2018-10-06T05:36:47.159Z,11.40
2018-10-06T05:37:47.167Z,11.00
2018-10-06T05:38:47.181Z,11.50
2018-10-06T05:39:47.195Z,10.90
2018-10-06T05:40:47.207Z,10.50
2018-10-06T05:41:47.221Z,10.40
2018-10-06T05:42:47.248Z,11.10
2018-10-06T05:43:47.261Z,11.00
2018-10-06T05:44:47.275Z,11.70
2018-10-06T05:45:47.288Z,10.80
2018-10-06T05:46:47.302Z,10.20
2018-10-06T05:47:47.316Z,10.30
2018-10-06T05:48:47.342Z,10.60
2018-10-06T05:49:47.354Z,11.00
2018-10-06T05:50:47.367Z,10.70
2018-10-06T05:51:47.382Z,10.10
2018-10-06T05:52:47.395Z,10.60
2018-10-06T05:53:47.425Z,10.60
2018-10-06T05:54:47.435Z,10.50
2018-10-06T05:55:47.447Z,10.60
2018-10-06T05:56:47.463Z,10.70
2018-10-06T05:57:47.475Z,10.50
2018-10-06T05:58:47.500Z,10.70
2018-10-06T05:59:47.515Z,10.20
2018-10-06T06:00:47.528Z,10.50
2018-10-06T06:01:47.542Z,10.50
2018-10-06T06:02:47.554Z,10.80
2018-10-06T06:03:47.569Z,10.60
2018-10-06T06:04:47.594Z,10.30
2018-10-06T06:05:47.608Z,9.90
2018-10-06T06:06:47.623Z,10.00
2018-10-06T06:07:47.635Z,9.50
2018-10-06T06:08:47.650Z,10.00
2018-10-06T06:09:47.692Z,10.00
2018-10-06T06:10:47.688Z,9.90
2018-10-06T06:11:47.701Z,10.10
2018-10-06T06:12:47.715Z,9.90
2018-10-06T06:13:47.729Z,10.30
2018-10-06T06:14:47.755Z,9.90
2018-10-06T06:15:47.833Z,9.90
2018-10-06T06:16:47.782Z,9.70
2018-10-06T06:17:47.796Z,9.60
2018-10-06T06:18:47.810Z,10.00
2018-10-06T06:19:47.835Z,10.00
2018-10-06T06:20:47.849Z,9.30
2018-10-06T06:21:47.862Z,8.90
2018-10-06T06:22:47.897Z,9.30
2018-10-06T06:23:47.956Z,8.80
2018-10-06T06:24:47.915Z,9.10
2018-10-06T06:25:47.929Z,9.10
2018-10-06T06:26:47.942Z,9.10
2018-10-06T06:27:47.968Z,9.50
2018-10-06T06:28:48.021Z,9.10
2018-10-06T06:29:47.998Z,9.00
2018-10-06T06:30:48.024Z,8.20
2018-10-06T06:31:48.022Z,9.20
2018-10-06T06:32:48.052Z,8.80
2018-10-06T06:33:48.062Z,8.70
2018-10-06T06:34:48.079Z,8.70
2018-10-06T06:35:48.101Z,8.80
2018-10-06T06:36:48.102Z,9.00
2018-10-06T06:37:48.129Z,8.40
2018-10-06T06:38:48.142Z,8.70
2018-10-06T06:39:48.157Z,8.50
2018-10-06T06:40:48.168Z,8.30
2018-10-06T06:41:48.198Z,8.20
2018-10-06T06:42:48.209Z,8.50
2018-10-06T06:43:48.279Z,8.00
2018-10-06T06:44:48.236Z,8.10
2018-10-06T06:45:48.262Z,7.90
2018-10-06T06:46:48.276Z,8.20
2018-10-06T06:47:48.288Z,8.30
2018-10-06T06:48:48.302Z,8.20
2018-10-06T06:49:48.328Z,8.50
2018-10-06T06:50:48.341Z,7.40
2018-10-06T06:51:48.355Z,7.80
2018-10-06T06:52:48.371Z,7.80
2018-10-06T06:53:48.395Z,7.90
2018-10-06T06:54:48.463Z,8.10
2018-10-06T06:55:48.423Z,7.60
2018-10-06T06:56:48.438Z,7.40
2018-10-06T06:57:48.460Z,8.30
2018-10-06T06:58:48.475Z,8.20
2018-10-06T06:59:48.488Z,7.90
2018-10-06T07:00:48.503Z,7.60
2018-10-06T07:01:48.529Z,7.80
2018-10-06T07:02:48.540Z,7.70
2018-10-06T07:03:48.555Z,7.80
2018-10-06T07:04:48.581Z,7.60
2018-10-06T07:05:48.621Z,7.90
2018-10-06T07:06:48.608Z,8.00
2018-10-06T07:07:48.621Z,7.70
2018-10-06T07:08:48.649Z,8.00
2018-10-06T07:09:48.663Z,7.70
2018-10-06T07:10:48.674Z,7.20
2018-10-06T07:11:48.688Z,8.00
2018-10-06T07:12:48.716Z,7.80
2018-10-06T07:13:48.728Z,7.80
2018-10-06T07:14:48.742Z,7.10
2018-10-06T07:15:48.767Z,8.00
2018-10-06T07:16:48.780Z,7.70
2018-10-06T07:17:48.795Z,7.80
2018-10-06T07:18:48.820Z,7.70
2018-10-06T07:19:48.837Z,7.70
2018-10-06T07:20:48.848Z,7.50
2018-10-06T07:21:48.873Z,6.70
2018-10-06T07:22:48.887Z,7.80
2018-10-06T07:23:48.900Z,6.60
2018-10-06T07:24:48.914Z,7.20
2018-10-06T07:25:48.939Z,6.90
2018-10-06T07:26:48.956Z,7.60
2018-10-06T07:27:48.967Z,7.30
2018-10-06T07:28:48.994Z,7.60
2018-10-06T07:29:49.008Z,7.70
2018-10-06T07:30:49.021Z,7.60
2018-10-06T07:31:49.048Z,7.60
2018-10-06T07:32:49.060Z,7.20
2018-10-06T07:33:49.080Z,7.70
2018-10-06T07:34:49.099Z,7.20
2018-10-06T07:35:49.113Z,7.00
2018-10-06T07:36:49.128Z,7.40
2018-10-06T07:37:49.152Z,7.40
2018-10-06T07:38:49.166Z,7.10
2018-10-06T07:39:49.180Z,7.10
2018-10-06T07:40:49.205Z,7.10
2018-10-06T07:41:49.220Z,8.00
2018-10-06T07:42:49.245Z,6.80
2018-10-06T07:43:49.259Z,6.10
2018-10-06T07:44:49.329Z,6.40
2018-10-06T07:45:49.298Z,6.60
2018-10-06T07:46:49.312Z,6.30
2018-10-06T07:47:49.326Z,7.10
2018-10-06T07:48:49.353Z,6.90
2018-10-06T07:49:49.365Z,7.40
2018-10-06T07:50:49.378Z,6.40
2018-10-06T07:51:49.405Z,7.10
2018-10-06T07:52:49.417Z,6.60
2018-10-06T07:53:49.443Z,7.10
2018-10-06T07:54:49.457Z,7.40
2018-10-06T07:55:49.472Z,6.60
2018-10-06T07:56:49.565Z,6.80
2018-10-06T07:57:49.514Z,6.10
2018-10-06T07:58:49.527Z,6.60
2018-10-06T07:59:49.550Z,6.90
2018-10-06T08:00:49.564Z,6.60
2018-10-06T08:01:49.591Z,6.20
2018-10-06T08:02:49.603Z,6.70
2018-10-06T08:03:49.619Z,5.90
2018-10-06T08:04:49.648Z,6.40
2018-10-06T08:05:49.656Z,6.70
2018-10-06T08:06:49.682Z,6.60
2018-10-06T08:07:49.700Z,6.40
2018-10-06T08:08:49.710Z,6.50
2018-10-06T08:09:49.735Z,6.00
2018-10-06T08:10:49.748Z,5.80
2018-10-06T08:11:49.775Z,6.00
2018-10-06T08:12:49.788Z,6.30
2018-10-06T08:13:49.827Z,5.60
2018-10-06T08:14:49.829Z,6.20
2018-10-06T08:15:49.841Z,6.00
2018-10-06T08:16:49.880Z,6.30
2018-10-06T08:17:49.880Z,6.10
2018-10-06T08:18:49.907Z,6.20
2018-10-06T08:19:49.921Z,5.80
2018-10-06T08:20:49.933Z,5.90
2018-10-06T08:21:49.960Z,6.30
2018-10-06T08:22:49.974Z,6.00
2018-10-06T08:23:50.015Z,6.10
2018-10-06T08:24:50.014Z,6.10
2018-10-06T08:25:50.042Z,5.60
2018-10-06T08:26:50.052Z,5.90
2018-10-06T08:27:50.071Z,5.20
2018-10-06T08:28:50.096Z,5.80
2018-10-06T08:29:50.105Z,5.50
2018-10-06T08:30:50.131Z,6.00
2018-10-06T08:31:50.145Z,5.40
2018-10-06T08:32:50.174Z,5.80
2018-10-06T08:33:50.184Z,6.00
2018-10-06T08:34:50.209Z,5.30
2018-10-06T08:35:50.224Z,5.90
2018-10-06T08:36:50.250Z,5.80
2018-10-06T08:37:50.264Z,6.10
2018-10-06T08:38:50.289Z,5.10
2018-10-06T08:39:50.304Z,5.60
2018-10-06T08:40:50.331Z,5.60
2018-10-06T08:41:50.355Z,5.40
2018-10-06T08:42:50.433Z,5.40
2018-10-06T08:43:50.384Z,5.40
2018-10-06T08:44:50.396Z,5.00
2018-10-06T08:45:50.421Z,5.00
2018-10-06T08:46:50.436Z,5.40
2018-10-06T08:47:50.461Z,5.40
2018-10-06T08:48:50.476Z,5.40
2018-10-06T08:49:50.565Z,5.30
2018-10-06T08:50:50.515Z,5.50
2018-10-06T08:51:50.541Z,5.20
2018-10-06T08:52:50.555Z,6.20
2018-10-06T08:53:50.579Z,5.40
2018-10-06T08:54:50.594Z,5.50
2018-10-06T08:55:50.757Z,5.50
2018-10-06T08:56:50.647Z,5.60
2018-10-06T08:57:50.861Z,5.60
2018-10-06T08:58:50.684Z,5.50
2018-10-06T08:59:50.699Z,5.70
2018-10-06T09:00:50.725Z,5.20
2018-10-06T09:01:50.739Z,5.00
2018-10-06T09:02:50.765Z,5.50
2018-10-06T09:03:50.778Z,5.20
2018-10-06T09:04:50.805Z,5.00
2018-10-06T09:05:50.817Z,5.50
2018-10-06T09:06:50.843Z,5.40
2018-10-06T09:07:50.858Z,5.70
2018-10-06T09:08:50.883Z,5.50
2018-10-06T09:09:50.897Z,5.10
2018-10-06T09:10:50.974Z,5.20
2018-10-06T09:11:50.948Z,5.00
2018-10-06T09:12:50.963Z,5.40
2018-10-06T09:13:50.989Z,4.90
2018-10-06T09:14:51.001Z,4.80
2018-10-06T09:15:51.030Z,5.00
2018-10-06T09:16:51.041Z,4.80
2018-10-06T09:17:51.113Z,4.80
2018-10-06T09:18:51.081Z,5.60
2018-10-06T09:19:51.105Z,5.10
2018-10-06T09:20:51.132Z,4.90
2018-10-06T09:21:51.146Z,5.40
2018-10-06T09:22:51.172Z,5.30
2018-10-06T09:23:51.185Z,5.50
2018-10-06T09:24:51.225Z,5.10
2018-10-06T09:25:51.229Z,5.00
2018-10-06T09:26:51.251Z,5.00
2018-10-06T09:27:51.265Z,5.10
2018-10-06T09:28:51.290Z,5.10
2018-10-06T09:29:51.318Z,5.00
2018-10-06T09:30:51.331Z,5.00
2018-10-06T09:31:51.356Z,5.50
2018-10-06T09:32:51.370Z,5.20
2018-10-06T09:33:51.396Z,5.10
2018-10-06T09:34:51.424Z,4.80
2018-10-06T09:35:51.436Z,5.30
2018-10-06T09:36:51.461Z,5.10
2018-10-06T09:37:51.475Z,5.90
2018-10-06T09:38:51.501Z,4.90
2018-10-06T09:39:51.526Z,5.10
2018-10-06T09:40:51.544Z,5.50
2018-10-06T09:41:51.642Z,5.00
2018-10-06T09:42:51.613Z,5.30
2018-10-06T09:43:51.607Z,5.10
2018-10-06T09:44:51.645Z,4.80
2018-10-06T09:45:51.649Z,5.30
2018-10-06T09:46:51.671Z,5.20
2018-10-06T09:47:51.685Z,4.90
2018-10-06T09:48:51.711Z,5.30
2018-10-06T09:49:51.736Z,4.90
2018-10-06T09:50:51.751Z,4.80
2018-10-06T09:51:51.776Z,5.00
2018-10-06T09:52:51.802Z,5.30
2018-10-06T09:53:51.887Z,5.00
2018-10-06T09:54:51.841Z,5.30
2018-10-06T09:55:51.856Z,4.90
2018-10-06T09:56:51.882Z,4.90
2018-10-06T09:57:51.910Z,4.70
2018-10-06T09:58:51.942Z,4.30
2018-10-06T09:59:51.946Z,4.70
2018-10-06T10:00:51.975Z,4.10
2018-10-06T10:01:51.986Z,4.90
2018-10-06T10:02:52.020Z,4.50
2018-10-06T10:03:52.027Z,4.60
2018-10-06T10:04:52.051Z,4.90
2018-10-06T10:05:52.168Z,5.00
2018-10-06T10:06:52.091Z,5.00
2018-10-06T10:07:52.159Z,5.00
2018-10-06T10:08:52.144Z,5.40
2018-10-06T10:09:52.178Z,5.10
2018-10-06T10:10:52.183Z,4.70
2018-10-06T10:11:52.222Z,4.60
2018-10-06T10:12:52.223Z,5.10
2018-10-06T10:13:52.249Z,4.90
2018-10-06T10:14:52.275Z,4.60
2018-10-06T10:15:52.288Z,4.40
2018-10-06T10:16:52.346Z,4.40
2018-10-06T10:17:52.502Z,4.70
2018-10-06T10:18:52.357Z,4.30
2018-10-06T10:19:52.380Z,4.90
2018-10-06T10:20:52.406Z,4.80
2018-10-06T10:21:52.490Z,4.60
2018-10-06T10:22:52.474Z,4.50
2018-10-06T10:23:52.563Z,4.40
2018-10-06T10:24:52.486Z,4.50
2018-10-06T10:25:52.511Z,4.40
2018-10-06T10:26:52.538Z,4.80
2018-10-06T10:27:52.550Z,4.70
2018-10-06T10:28:52.656Z,4.40
2018-10-06T10:29:52.603Z,4.10
2018-10-06T10:30:52.620Z,4.90
2018-10-06T10:31:52.643Z,5.00
2018-10-06T10:32:52.668Z,4.90
2018-10-06T10:33:52.686Z,5.30
2018-10-06T10:34:52.707Z,4.80
2018-10-06T10:35:52.736Z,4.80
2018-10-06T10:36:52.760Z,4.90
2018-10-06T10:37:52.773Z,5.20
2018-10-06T10:38:52.801Z,4.80
2018-10-06T10:39:52.833Z,4.90
2018-10-06T10:40:52.838Z,5.10
2018-10-06T10:41:52.865Z,4.50
2018-10-06T10:42:52.891Z,4.20
2018-10-06T10:43:52.938Z,4.70
2018-10-06T10:44:52.930Z,4.90
2018-10-06T10:45:52.957Z,4.50
2018-10-06T10:46:52.986Z,4.60
2018-10-06T10:47:52.997Z,4.70
2018-10-06T10:48:53.021Z,4.70
2018-10-06T10:49:53.048Z,4.90
2018-10-06T10:50:53.138Z,5.10
2018-10-06T10:51:53.088Z,4.70
2018-10-06T10:52:53.113Z,5.00
2018-10-06T10:53:53.140Z,4.60
2018-10-06T10:54:53.152Z,4.80
2018-10-06T10:55:53.180Z,4.80
2018-10-06T10:56:53.204Z,4.90
2018-10-06T10:57:53.300Z,4.80
2018-10-06T10:58:53.245Z,4.70
2018-10-06T10:59:53.448Z,4.60
2018-10-06T11:00:53.297Z,5.10
2018-10-06T11:01:53.310Z,4.50
2018-10-06T11:02:53.340Z,4.60
2018-10-06T11:03:53.372Z,4.90
2018-10-06T11:04:53.426Z,4.50
2018-10-06T11:05:53.401Z,4.40
2018-10-06T11:06:53.427Z,4.20
2018-10-06T11:07:53.453Z,4.30
2018-10-06T11:08:53.468Z,4.60
2018-10-06T11:09:53.492Z,4.70
2018-10-06T11:10:53.519Z,4.50
2018-10-06T11:11:53.545Z,4.80
2018-10-06T11:12:53.562Z,4.30
2018-10-06T11:13:53.585Z,4.80
2018-10-06T11:14:53.610Z,4.80
2018-10-06T11:15:53.636Z,4.80
2018-10-06T11:16:53.650Z,4.40
2018-10-06T11:17:53.675Z,4.40
2018-10-06T11:18:53.701Z,4.20
2018-10-06T11:19:53.740Z,4.10
2018-10-06T11:20:53.741Z,4.50
2018-10-06T11:21:53.768Z,4.10
2018-10-06T11:22:53.794Z,4.40
2018-10-06T11:23:53.820Z,4.20
2018-10-06T11:24:53.858Z,4.40
2018-10-06T11:25:53.858Z,4.10
2018-10-06T11:26:53.884Z,4.00
2018-10-06T11:27:53.924Z,4.10
2018-10-06T11:28:53.924Z,4.20
2018-10-06T11:29:53.950Z,4.10
2018-10-06T11:30:53.976Z,4.10
2018-10-06T11:31:54.002Z,4.50
2018-10-06T11:32:54.017Z,4.70
2018-10-06T11:33:54.055Z,3.90
2018-10-06T11:34:54.070Z,4.40
2018-10-06T11:35:54.094Z,4.00
2018-10-06T11:36:54.126Z,4.00
2018-10-06T11:37:54.241Z,4.10
2018-10-06T11:38:54.163Z,4.50
2018-10-06T11:39:54.185Z,4.50
2018-10-06T11:40:54.211Z,4.10
2018-10-06T11:41:54.248Z,4.50
2018-10-06T11:42:54.251Z,4.30
2018-10-06T11:43:54.277Z,3.90
2018-10-06T11:44:54.303Z,4.10
2018-10-06T11:45:54.328Z,4.10
2018-10-06T11:46:54.342Z,3.90
2018-10-06T11:47:54.368Z,4.10
2018-10-06T11:48:54.395Z,4.30
2018-10-06T11:49:54.439Z,4.30
2018-10-06T11:50:54.449Z,4.20
2018-10-06T11:51:54.459Z,4.40
2018-10-06T11:52:54.485Z,4.00
2018-10-06T11:53:54.511Z,3.60
2018-10-06T11:54:54.537Z,3.80
2018-10-06T11:55:54.563Z,3.60
2018-10-06T11:56:54.589Z,3.80
2018-10-06T11:57:54.604Z,3.70
2018-10-06T11:58:54.630Z,3.70
2018-10-06T11:59:54.687Z,3.60
2018-10-06T12:00:54.681Z,4.20
2018-10-06T12:01:54.709Z,3.70
2018-10-06T12:02:54.733Z,3.80
2018-10-06T12:03:54.747Z,3.90
2018-10-06T12:04:54.771Z,4.30
2018-10-06T12:05:54.867Z,3.80
2018-10-06T12:06:54.825Z,4.20
2018-10-06T12:07:54.853Z,3.90
2018-10-06T12:08:54.889Z,4.30
2018-10-06T12:09:54.902Z,4.40
2018-10-06T12:10:54.916Z,4.20
2018-10-06T12:11:54.943Z,4.10
2018-10-06T12:12:54.969Z,4.40
2018-10-06T12:13:54.994Z,3.90
2018-10-06T12:14:55.020Z,4.30
2018-10-06T12:15:55.047Z,3.80
2018-10-06T12:16:55.072Z,3.50
2018-10-06T12:17:55.098Z,4.00
2018-10-06T12:18:55.112Z,3.80
2018-10-06T12:19:55.137Z,4.00
2018-10-06T12:20:55.164Z,4.70
2018-10-06T12:21:55.192Z,4.00
2018-10-06T12:22:55.215Z,4.00
2018-10-06T12:23:55.242Z,3.80
2018-10-06T12:24:55.269Z,3.90
2018-10-06T12:25:55.297Z,3.90
2018-10-06T12:26:55.320Z,4.70
2018-10-06T12:27:55.333Z,3.90
2018-10-06T12:28:55.359Z,4.00
2018-10-06T12:29:55.385Z,4.20
2018-10-06T12:30:55.411Z,4.00
2018-10-06T12:31:55.440Z,3.80
2018-10-06T12:32:55.464Z,3.50
2018-10-06T12:33:55.489Z,3.70
2018-10-06T12:34:55.644Z,3.80
2018-10-06T12:35:55.542Z,3.80
2018-10-06T12:36:55.568Z,4.00
2018-10-06T12:37:55.594Z,4.00
2018-10-06T12:38:55.608Z,4.50
2018-10-06T12:39:55.633Z,4.10
2018-10-06T12:40:55.658Z,4.00
2018-10-06T12:41:55.685Z,3.90
2018-10-06T12:42:55.710Z,4.30
2018-10-06T12:43:55.736Z,3.60
2018-10-06T12:44:55.762Z,3.70
2018-10-06T12:45:55.789Z,3.70
2018-10-06T12:46:55.815Z,3.70
2018-10-06T12:47:55.841Z,3.70
2018-10-06T12:48:55.866Z,3.60
2018-10-06T12:49:55.894Z,3.70
2018-10-06T12:50:55.918Z,3.50
2018-10-06T12:51:55.958Z,3.60
2018-10-06T12:52:55.970Z,3.40
2018-10-06T12:53:55.985Z,3.40
2018-10-06T12:54:56.013Z,3.80
2018-10-06T12:55:56.037Z,3.90
2018-10-06T12:56:56.063Z,4.20
2018-10-06T12:57:56.090Z,3.80
2018-10-06T12:58:56.114Z,3.90
2018-10-06T12:59:56.183Z,3.70
2018-10-06T13:00:56.166Z,3.60
2018-10-06T13:01:56.193Z,3.80
2018-10-06T13:02:56.218Z,3.70
2018-10-06T13:03:56.245Z,3.90
2018-10-06T13:04:56.257Z,3.70
2018-10-06T13:05:56.296Z,4.00
2018-10-06T13:06:56.310Z,3.40
2018-10-06T13:07:56.335Z,3.30
2018-10-06T13:08:56.362Z,3.30
2018-10-06T13:09:56.386Z,3.40
2018-10-06T13:10:56.414Z,3.30